2G9

Somerset County Airport

Somerset, Pennsylvania, USA
METAR K2G9 190835Z AUTO 23007KT 10SM CLR 00/M02 A3032 RMK AO2
Observed Flight Rules
Oct-19 @ 08:35 UTC (31 minutes ago) Visual Flight Rules
Wind Visibility Clouds
230° at 7 knots 10 miles
  • Clear skies
Temperatures Readings
Current 0°C / 32°F
Dewpoint -2°C / 28°F
Humidity 87%
Altimeter 30.32" Hg
Pressure 1027 hPa
Elevation 693
METAR K2G9 190835Z AUTO 23007KT 10SM CLR 00/M02 A3032 RMK AO2
Observed Flight Rules
Oct-19 @ 08:35 UTC
(31 minutes ago)
VFR
Wind Visibility
230° at 7 knots 10 miles
Clouds
  • Clear skies
Temperature Dewpoint
0°C / 32°F -2°C / 28°F
Humidity Altimeter Pressure
87% 30.32" Hg 1027 hPa